createdAt,value
2018-05-11T00:00:07.891Z,8.43
2018-05-11T00:02:34.384Z,5.80
2018-05-11T00:05:01.656Z,9.13
2018-05-11T00:07:28.791Z,7.20
2018-05-11T00:09:56.907Z,5.60
2018-05-11T00:12:23.489Z,9.13
2018-05-11T00:14:49.903Z,8.85
2018-05-11T00:17:16.298Z,4.97
2018-05-11T00:19:42.679Z,8.38
2018-05-11T00:22:09.068Z,5.37
2018-05-11T00:24:35.530Z,7.85
2018-05-11T00:27:02.062Z,7.70
2018-05-11T00:29:28.769Z,5.80
2018-05-11T00:31:55.173Z,5.90
2018-05-11T00:34:22.385Z,7.15
2018-05-11T00:36:48.810Z,5.35
2018-05-11T00:39:15.323Z,5.87
2018-05-11T00:41:41.802Z,6.82
2018-05-11T00:44:08.339Z,8.25
2018-05-11T00:46:34.741Z,7.70
2018-05-11T00:49:01.162Z,6.43
2018-05-11T00:51:27.631Z,5.80
2018-05-11T00:53:54.037Z,6.95
2018-05-11T00:56:20.423Z,5.57
2018-05-11T00:58:47.020Z,4.65
2018-05-11T01:01:13.397Z,7.82
2018-05-11T01:03:40.685Z,6.65
2018-05-11T01:06:07.938Z,7.55
2018-05-11T01:08:34.443Z,6.47
2018-05-11T01:11:01.686Z,7.55
2018-05-11T01:13:28.293Z,7.78
2018-05-11T01:15:54.717Z,5.40
2018-05-11T01:18:21.281Z,7.72
2018-05-11T01:20:47.643Z,5.75
2018-05-11T01:23:14.829Z,6.37
2018-05-11T01:25:41.454Z,5.85
2018-05-11T01:28:08.189Z,6.07
2018-05-11T01:30:34.935Z,4.72
2018-05-11T01:33:01.402Z,7.22
2018-05-11T01:35:27.914Z,7.62
2018-05-11T01:37:54.342Z,4.60
2018-05-11T01:40:21.062Z,5.70
2018-05-11T01:42:47.449Z,5.47
2018-05-11T01:45:13.989Z,8.95
2018-05-11T01:47:40.389Z,6.53
2018-05-11T01:50:06.810Z,7.05
2018-05-11T01:52:33.258Z,6.90
2018-05-11T01:54:59.734Z,6.82
2018-05-11T01:57:26.885Z,6.57
2018-05-11T01:59:54.095Z,7.10
2018-05-11T02:02:20.472Z,5.68
2018-05-11T02:04:47.737Z,10.10
2018-05-11T02:07:14.963Z,7.28
2018-05-11T02:09:41.393Z,6.05
2018-05-11T02:12:07.798Z,5.93
2018-05-11T02:14:34.200Z,7.65
2018-05-11T02:17:00.620Z,7.62
2018-05-11T02:19:27.773Z,5.32
2018-05-11T02:21:54.207Z,7.93
2018-05-11T02:24:20.638Z,6.87
2018-05-11T02:26:47.903Z,6.45
2018-05-11T02:29:14.398Z,6.68
2018-05-11T02:31:40.811Z,6.57
2018-05-11T02:34:07.242Z,11.30
2018-05-11T02:36:33.716Z,6.70
2018-05-11T02:39:00.667Z,8.52
2018-05-11T02:41:27.174Z,7.78
2018-05-11T02:43:53.749Z,8.30
2018-05-11T02:46:20.245Z,9.43
2018-05-11T02:48:46.721Z,8.73
2018-05-11T02:51:13.172Z,8.75
2018-05-11T02:53:39.617Z,8.38
2018-05-11T02:56:06.829Z,6.40
2018-05-11T02:58:33.250Z,6.32
2018-05-11T03:01:00.381Z,7.22
2018-05-11T03:03:26.848Z,10.20
2018-05-11T03:05:53.267Z,9.82
2018-05-11T03:08:20.449Z,9.52
2018-05-11T03:10:46.887Z,10.70
2018-05-11T03:13:13.325Z,10.70
2018-05-11T03:15:39.847Z,8.52
2018-05-11T03:18:06.362Z,8.65
2018-05-11T03:20:32.830Z,8.15
2018-05-11T03:22:59.337Z,9.40
2018-05-11T03:25:25.792Z,6.37
2018-05-11T03:27:52.229Z,9.60
2018-05-11T03:30:18.786Z,6.95
2018-05-11T03:32:46.740Z,8.70
2018-05-11T03:35:13.187Z,9.52
2018-05-11T03:37:39.690Z,10.05
2018-05-11T03:40:06.123Z,7.70
2018-05-11T03:42:32.621Z,8.82
2018-05-11T03:44:59.807Z,9.90
2018-05-11T03:47:26.236Z,10.88
2018-05-11T03:49:52.680Z,10.07
2018-05-11T03:52:19.146Z,8.90
2018-05-11T03:54:45.561Z,10.77
2018-05-11T03:57:11.992Z,9.48
2018-05-11T03:59:38.431Z,5.32
2018-05-11T04:02:23.542Z,7.35
2018-05-11T04:05:09.065Z,6.65
2018-05-11T04:07:54.766Z,9.85
2018-05-11T04:10:21.291Z,8.55
2018-05-11T04:12:47.726Z,8.18
2018-05-11T04:15:14.117Z,7.43
2018-05-11T04:17:41.310Z,10.43
2018-05-11T04:20:08.005Z,9.40
2018-05-11T04:22:35.140Z,10.98
2018-05-11T04:25:02.349Z,7.60
2018-05-11T04:27:28.779Z,11.10
2018-05-11T04:29:56.071Z,10.07
2018-05-11T04:32:24.005Z,11.32
2018-05-11T04:34:51.130Z,8.48
2018-05-11T04:37:17.933Z,11.70
2018-05-11T04:39:44.722Z,10.63
2018-05-11T04:42:11.182Z,10.00
2018-05-11T04:44:38.367Z,7.85
2018-05-11T04:47:05.531Z,11.48
2018-05-11T04:49:32.021Z,10.55
2018-05-11T04:51:58.534Z,7.28
2018-05-11T04:54:24.981Z,8.63
2018-05-11T04:56:51.474Z,7.82
2018-05-11T04:59:25.223Z,9.65
2018-05-11T05:01:51.654Z,8.43
2018-05-11T05:04:18.163Z,8.98
2018-05-11T05:06:44.601Z,8.00
2018-05-11T05:09:11.032Z,7.37
2018-05-11T05:11:37.515Z,8.75
2018-05-11T05:14:04.726Z,10.80
2018-05-11T05:16:31.169Z,13.50
2018-05-11T05:18:57.959Z,9.60
2018-05-11T05:21:25.210Z,8.20
2018-05-11T05:23:53.561Z,12.98
2018-05-11T05:26:20.085Z,10.35
2018-05-11T05:28:46.499Z,9.70
2018-05-11T05:31:12.954Z,9.07
2018-05-11T05:33:39.469Z,8.57
2018-05-11T05:36:06.407Z,12.82
2018-05-11T05:38:33.090Z,10.98
2018-05-11T05:41:00.236Z,12.25
2018-05-11T05:43:26.699Z,10.73
2018-05-11T05:45:53.959Z,9.68
2018-05-11T05:48:21.133Z,12.07
2018-05-11T05:50:47.531Z,10.18
2018-05-11T05:53:14.742Z,10.27
2018-05-11T05:55:41.296Z,8.50
2018-05-11T05:58:08.478Z,8.18
2018-05-11T06:00:34.961Z,8.93
2018-05-11T06:03:01.400Z,11.55
2018-05-11T06:05:27.899Z,8.52
2018-05-11T06:07:54.280Z,14.02
2018-05-11T06:10:21.432Z,12.23
2018-05-11T06:12:48.642Z,18.17
2018-05-11T06:15:15.035Z,11.02
2018-05-11T06:17:42.553Z,12.15
2018-05-11T06:20:08.937Z,15.27
2018-05-11T06:22:35.772Z,12.07
2018-05-11T06:25:02.169Z,11.60
2018-05-11T06:27:28.647Z,12.88
2018-05-11T06:29:55.044Z,9.80
2018-05-11T06:32:21.805Z,12.85
2018-05-11T06:34:48.187Z,8.55
2018-05-11T06:37:14.913Z,14.63
2018-05-11T06:39:41.617Z,12.88
2018-05-11T06:42:08.911Z,11.10
2018-05-11T06:44:36.095Z,13.65
2018-05-11T06:47:02.613Z,11.77
2018-05-11T06:49:29.398Z,10.05
2018-05-11T06:51:55.999Z,13.45
2018-05-11T06:54:22.534Z,10.10
2018-05-11T06:56:49.771Z,9.45
2018-05-11T06:59:16.359Z,10.15
2018-05-11T07:01:42.860Z,7.90
2018-05-11T07:04:09.304Z,10.20
2018-05-11T07:06:36.446Z,8.23
2018-05-11T07:09:03.599Z,11.88
2018-05-11T07:11:31.288Z,13.00
2018-05-11T07:13:58.459Z,10.98
2018-05-11T07:16:24.967Z,11.32
2018-05-11T07:18:52.262Z,8.00
2018-05-11T07:21:18.957Z,14.18
2018-05-11T07:23:45.433Z,10.32
2018-05-11T07:26:12.650Z,13.05
2018-05-11T07:28:39.088Z,11.23
2018-05-11T07:31:05.611Z,14.10
2018-05-11T07:33:32.839Z,8.85
2018-05-11T07:36:00.818Z,13.65
2018-05-11T07:38:28.096Z,13.20
2018-05-11T07:40:54.535Z,16.77
2018-05-11T07:43:21.107Z,15.05
2018-05-11T07:45:48.214Z,15.23
2018-05-11T07:48:14.714Z,12.47
2018-05-11T07:50:41.972Z,15.68
2018-05-11T07:53:09.117Z,16.00
2018-05-11T07:55:35.682Z,16.53
2018-05-11T07:58:03.141Z,16.48
2018-05-11T08:00:30.360Z,15.07
2018-05-11T08:02:57.631Z,19.27
2018-05-11T08:05:24.298Z,18.65
2018-05-11T08:07:50.832Z,17.50
2018-05-11T08:10:17.392Z,18.45
2018-05-11T08:12:44.104Z,20.37
2018-05-11T08:15:10.586Z,15.20
2018-05-11T08:17:37.072Z,17.40
2018-05-11T08:20:03.526Z,18.77
2018-05-11T08:22:30.081Z,21.93
2018-05-11T08:24:56.624Z,15.93
2018-05-11T08:27:23.415Z,17.30
2018-05-11T08:29:51.388Z,17.33
2018-05-11T08:32:18.449Z,14.73
2018-05-11T08:34:45.127Z,15.70
2018-05-11T08:37:12.450Z,19.63
2018-05-11T08:39:39.746Z,20.13
2018-05-11T08:42:06.227Z,15.90
2018-05-11T08:44:32.973Z,16.90
2018-05-11T08:47:00.024Z,19.37
2018-05-11T08:49:26.718Z,21.23
2018-05-11T08:51:54.243Z,24.30
2018-05-11T08:54:21.133Z,18.80
2018-05-11T08:56:47.652Z,22.10
2018-05-11T08:59:14.390Z,19.83
2018-05-11T09:01:41.150Z,16.93
2018-05-11T09:04:07.961Z,17.17
2018-05-11T09:06:35.100Z,17.70
2018-05-11T09:09:01.560Z,16.53
2018-05-11T09:11:29.043Z,19.37
2018-05-11T09:13:56.715Z,17.17
2018-05-11T09:16:24.518Z,17.80
2018-05-11T09:18:51.111Z,16.37
2018-05-11T09:21:17.598Z,17.17
2018-05-11T09:23:45.301Z,15.33
2018-05-11T09:26:12.835Z,19.37
2018-05-11T09:28:39.405Z,15.57
2018-05-11T09:31:06.353Z,20.73
2018-05-11T09:33:32.750Z,15.97
2018-05-11T09:36:00.538Z,17.50
2018-05-11T09:38:27.209Z,18.50
2018-05-11T09:40:53.698Z,16.43
2018-05-11T09:43:20.164Z,19.40
2018-05-11T09:45:46.548Z,17.53
2018-05-11T09:48:13.664Z,17.30
2018-05-11T09:50:40.222Z,16.33
2018-05-11T09:53:08.189Z,20.13
2018-05-11T09:55:35.428Z,16.37
2018-05-11T09:58:01.797Z,19.07
2018-05-11T10:00:28.418Z,19.03
2018-05-11T10:02:54.914Z,21.50
2018-05-11T10:05:21.355Z,17.07
2018-05-11T10:07:47.986Z,17.73
2018-05-11T10:10:14.691Z,20.30
2018-05-11T10:12:41.159Z,17.43
2018-05-11T10:15:07.614Z,17.17
2018-05-11T10:17:34.114Z,14.70
2018-05-11T10:20:00.516Z,14.13
2018-05-11T10:22:28.271Z,16.30
2018-05-11T10:24:55.434Z,16.13
2018-05-11T10:27:22.177Z,14.83
2018-05-11T10:29:48.697Z,13.80
2018-05-11T10:32:16.173Z,16.33
2018-05-11T10:34:42.617Z,17.63
2018-05-11T10:37:09.226Z,15.53
2018-05-11T10:39:36.432Z,14.13
2018-05-11T10:42:02.862Z,12.57
2018-05-11T10:44:29.357Z,17.10
2018-05-11T10:46:55.789Z,13.00
2018-05-11T10:49:22.392Z,14.67
2018-05-11T10:51:49.682Z,13.40
2018-05-11T10:54:16.169Z,13.30
2018-05-11T10:56:42.571Z,13.70
2018-05-11T10:59:09.114Z,14.10
2018-05-11T11:01:35.632Z,16.93
2018-05-11T11:04:02.099Z,13.23
2018-05-11T11:06:28.540Z,13.73
2018-05-11T11:08:54.981Z,14.00
2018-05-11T11:11:21.453Z,15.93
2018-05-11T11:13:48.200Z,17.60
2018-05-11T11:16:14.709Z,16.83
2018-05-11T11:18:42.021Z,15.10
2018-05-11T11:21:08.460Z,16.60
2018-05-11T11:23:34.897Z,12.47
2018-05-11T11:26:01.965Z,15.97
2018-05-11T11:28:28.409Z,15.80
2018-05-11T11:30:56.671Z,16.43
2018-05-11T11:33:23.822Z,15.57
2018-05-11T11:35:51.155Z,17.27
2018-05-11T11:38:17.652Z,14.30
2018-05-11T11:40:44.115Z,13.87
2018-05-11T11:43:10.642Z,14.73
2018-05-11T11:45:37.110Z,15.43
2018-05-11T11:48:03.722Z,13.80
2018-05-11T11:50:30.255Z,14.50
2018-05-11T11:52:56.662Z,15.43
2018-05-11T11:55:23.051Z,17.00
2018-05-11T11:57:49.595Z,16.00
2018-05-11T12:00:16.872Z,15.27
2018-05-11T12:02:43.348Z,14.13
2018-05-11T12:05:10.155Z,16.70
2018-05-11T12:07:36.587Z,11.70
2018-05-11T12:10:03.035Z,10.80
2018-05-11T12:12:29.748Z,13.67
2018-05-11T12:14:56.163Z,13.63
2018-05-11T12:17:24.206Z,11.97
2018-05-11T12:19:50.935Z,16.23
2018-05-11T12:22:17.352Z,17.13
2018-05-11T12:24:43.788Z,17.63
2018-05-11T12:27:10.290Z,16.93
2018-05-11T12:29:37.333Z,13.60
2018-05-11T12:32:06.129Z,16.30
2018-05-11T12:34:32.829Z,14.90
2018-05-11T12:36:59.332Z,15.43
2018-05-11T12:39:25.863Z,17.10
2018-05-11T12:41:52.296Z,12.90
2018-05-11T12:44:18.756Z,14.17
2018-05-11T12:46:45.221Z,14.43
2018-05-11T12:49:12.390Z,16.23
2018-05-11T12:51:40.153Z,17.03
2018-05-11T12:54:06.642Z,18.37
2018-05-11T12:56:33.090Z,14.60
2018-05-11T12:59:00.491Z,16.10
2018-05-11T13:01:26.968Z,16.77
2018-05-11T13:03:53.507Z,15.40
2018-05-11T13:06:20.214Z,12.47
2018-05-11T13:08:47.159Z,18.17
2018-05-11T13:11:13.881Z,15.33
2018-05-11T13:13:40.942Z,12.63
2018-05-11T13:16:07.480Z,15.67
2018-05-11T13:18:34.334Z,12.83
2018-05-11T13:21:01.729Z,17.70
2018-05-11T13:23:28.941Z,15.80
2018-05-11T13:25:55.385Z,12.53
2018-05-11T13:28:22.226Z,16.90
2018-05-11T13:30:48.874Z,13.00
2018-05-11T13:33:15.298Z,13.60
2018-05-11T13:35:42.601Z,15.27
2018-05-11T13:38:09.100Z,17.47
2018-05-11T13:40:36.420Z,14.50
2018-05-11T13:43:03.270Z,14.40
2018-05-11T13:45:29.753Z,13.90
2018-05-11T13:47:56.140Z,17.07
2018-05-11T13:50:22.607Z,14.23
2018-05-11T13:52:49.759Z,12.10
2018-05-11T13:55:17.120Z,12.53
2018-05-11T13:57:44.769Z,13.27
2018-05-11T14:00:12.196Z,17.43
2018-05-11T14:02:38.653Z,25.57
2018-05-11T14:05:05.998Z,13.73
2018-05-11T14:07:32.419Z,14.60
2018-05-11T14:09:59.740Z,15.03
2018-05-11T14:12:26.414Z,12.00
2018-05-11T14:14:52.832Z,15.07
2018-05-11T14:17:19.529Z,13.83
2018-05-11T14:19:46.874Z,11.50
2018-05-11T14:22:14.061Z,11.90
2018-05-11T14:24:40.575Z,13.33
2018-05-11T14:27:07.058Z,12.37
2018-05-11T14:29:34.753Z,11.30
2018-05-11T14:32:01.994Z,14.60
2018-05-11T14:34:28.305Z,10.33
2018-05-11T14:36:54.728Z,12.23
2018-05-11T14:39:21.300Z,13.97
2018-05-11T14:41:47.824Z,10.97
2018-05-11T14:44:15.022Z,12.33
2018-05-11T14:46:42.233Z,12.43
2018-05-11T14:49:09.704Z,13.37
2018-05-11T14:51:36.821Z,12.57
2018-05-11T14:54:03.269Z,11.13
2018-05-11T14:56:29.801Z,10.90
2018-05-11T14:58:56.631Z,11.53
2018-05-11T15:01:23.140Z,13.13
2018-05-11T15:03:49.841Z,13.97
2018-05-11T15:06:16.977Z,14.27
2018-05-11T15:08:44.260Z,12.43
2018-05-11T15:11:10.985Z,12.67
2018-05-11T15:13:37.651Z,11.97
2018-05-11T15:16:04.170Z,12.20
2018-05-11T15:18:30.641Z,10.67
2018-05-11T15:20:57.092Z,16.00
2018-05-11T15:23:23.773Z,13.47
2018-05-11T15:25:51.091Z,15.63
2018-05-11T15:28:17.699Z,11.97
2018-05-11T15:30:44.429Z,13.00
2018-05-11T15:33:11.040Z,11.87
2018-05-11T15:35:37.439Z,12.00
2018-05-11T15:38:04.578Z,20.73
2018-05-11T15:40:31.112Z,16.60
2018-05-11T15:42:57.692Z,11.37
2018-05-11T15:45:24.859Z,15.93
2018-05-11T15:47:51.486Z,11.77
2018-05-11T15:50:17.917Z,11.83
2018-05-11T15:52:44.380Z,17.07
2018-05-11T15:55:11.096Z,13.93
2018-05-11T15:57:38.304Z,11.80
2018-05-11T16:00:05.508Z,19.00
2018-05-11T16:02:32.221Z,11.40
2018-05-11T16:04:58.858Z,14.90
2018-05-11T16:07:26.022Z,12.53
2018-05-11T16:09:52.798Z,14.50
2018-05-11T16:12:20.972Z,10.67
2018-05-11T16:14:47.522Z,14.17
2018-05-11T16:17:13.936Z,14.47
2018-05-11T16:19:40.540Z,9.67
2018-05-11T16:22:07.290Z,12.40
2018-05-11T16:24:33.850Z,28.20
2018-05-11T16:27:00.567Z,13.70
2018-05-11T16:29:29.368Z,11.53
2018-05-11T16:31:56.144Z,15.37
2018-05-11T16:34:23.567Z,11.23
2018-05-11T16:36:50.207Z,10.60
2018-05-11T16:39:18.674Z,9.73
2018-05-11T16:41:45.388Z,12.40
2018-05-11T16:44:13.054Z,11.03
2018-05-11T16:46:39.525Z,13.33
2018-05-11T16:49:06.183Z,13.33
2018-05-11T16:51:32.886Z,14.70
2018-05-11T16:53:59.589Z,11.10
2018-05-11T16:56:27.002Z,10.93
2018-05-11T16:58:53.965Z,11.27
2018-05-11T17:01:20.924Z,10.27
2018-05-11T17:03:48.074Z,12.87
2018-05-11T17:06:15.567Z,10.57
2018-05-11T17:08:42.048Z,15.77
2018-05-11T17:11:08.531Z,10.63
2018-05-11T17:13:35.261Z,12.43
2018-05-11T17:16:02.447Z,14.43
2018-05-11T17:18:28.953Z,15.83
2018-05-11T17:20:56.128Z,11.00
2018-05-11T17:23:22.533Z,12.57
2018-05-11T17:25:49.003Z,13.07
2018-05-11T17:28:15.391Z,13.23
2018-05-11T17:30:42.617Z,13.13
2018-05-11T17:33:09.290Z,15.30
2018-05-11T17:35:36.528Z,12.20
2018-05-11T17:38:03.841Z,13.37
2018-05-11T17:40:30.271Z,9.40
2018-05-11T17:42:56.722Z,14.53
2018-05-11T17:45:23.183Z,15.77
2018-05-11T17:47:50.598Z,14.93
2018-05-11T17:50:17.144Z,11.73
2018-05-11T17:52:44.300Z,13.37
2018-05-11T17:55:10.777Z,14.30
2018-05-11T17:57:37.210Z,13.93
2018-05-11T18:00:03.678Z,12.13
2018-05-11T18:02:30.104Z,14.30
2018-05-11T18:04:56.498Z,15.33
2018-05-11T18:07:23.654Z,21.57
2018-05-11T18:09:50.809Z,12.20
2018-05-11T18:12:17.215Z,12.50
2018-05-11T18:14:44.452Z,11.77
2018-05-11T18:17:10.824Z,12.47
2018-05-11T18:19:37.302Z,14.97
2018-05-11T18:22:03.781Z,14.40
2018-05-11T18:24:30.179Z,15.63
2018-05-11T18:26:56.579Z,15.97
2018-05-11T18:29:22.981Z,13.57
2018-05-11T18:31:49.423Z,14.17
2018-05-11T18:34:15.965Z,12.53
2018-05-11T18:36:44.609Z,13.13
2018-05-11T18:39:11.125Z,15.23
2018-05-11T18:41:37.536Z,11.90
2018-05-11T18:44:04.083Z,13.67
2018-05-11T18:46:31.586Z,13.13
2018-05-11T18:48:58.741Z,13.10
2018-05-11T18:51:25.767Z,15.70
2018-05-11T18:53:57.235Z,14.33
2018-05-11T18:56:24.715Z,12.73
2018-05-11T18:58:51.091Z,15.93
2018-05-11T19:01:18.265Z,15.30
2018-05-11T19:03:44.800Z,14.40
2018-05-11T19:06:11.185Z,16.87
2018-05-11T19:08:37.655Z,16.30
2018-05-11T19:11:04.319Z,23.13
2018-05-11T19:13:31.161Z,11.77
2018-05-11T19:15:57.577Z,17.20
2018-05-11T19:18:24.833Z,16.50
2018-05-11T19:20:51.963Z,17.13
2018-05-11T19:23:18.686Z,16.70
2018-05-11T19:25:45.156Z,17.73
2018-05-11T19:28:12.580Z,16.63
2018-05-11T19:30:39.051Z,15.93
2018-05-11T19:33:06.887Z,16.40
2018-05-11T19:35:33.487Z,18.30
2018-05-11T19:38:00.068Z,18.20
2018-05-11T19:40:26.662Z,17.20
2018-05-11T19:42:53.041Z,18.10
2018-05-11T19:45:19.389Z,17.07
2018-05-11T19:47:46.665Z,17.70
2018-05-11T19:50:13.130Z,18.60
2018-05-11T19:52:39.630Z,21.43
2018-05-11T19:55:06.884Z,20.13
2018-05-11T19:57:34.567Z,17.87
2018-05-11T20:00:01.112Z,17.60
2018-05-11T20:02:27.651Z,15.77
2018-05-11T20:04:54.071Z,16.70
2018-05-11T20:07:20.586Z,19.30
2018-05-11T20:09:47.545Z,17.80
2018-05-11T20:12:13.976Z,18.10
2018-05-11T20:14:40.477Z,15.63
2018-05-11T20:17:07.669Z,18.60
2018-05-11T20:19:34.078Z,16.90
2018-05-11T20:22:00.562Z,18.43
2018-05-11T20:24:26.998Z,15.53
2018-05-11T20:26:54.210Z,20.47
2018-05-11T20:29:20.722Z,16.07
2018-05-11T20:31:47.874Z,18.97
2018-05-11T20:34:14.413Z,16.83
2018-05-11T20:36:40.931Z,17.87
2018-05-11T20:39:08.130Z,21.23
2018-05-11T20:41:36.259Z,20.07
2018-05-11T20:44:02.734Z,19.63
2018-05-11T20:46:29.274Z,19.73
2018-05-11T20:48:55.714Z,20.43
2018-05-11T20:51:22.193Z,16.87
2018-05-11T20:53:49.422Z,18.53
2018-05-11T20:56:16.001Z,17.83
2018-05-11T20:58:42.574Z,19.10
2018-05-11T21:01:09.857Z,20.37
2018-05-11T21:03:37.350Z,19.40
2018-05-11T21:06:03.829Z,18.60
2018-05-11T21:08:30.324Z,17.87
2018-05-11T21:10:56.814Z,18.57
2018-05-11T21:13:24.672Z,18.60
2018-05-11T21:15:52.105Z,18.17
2018-05-11T21:18:18.616Z,15.53
2018-05-11T21:20:45.180Z,18.40
2018-05-11T21:23:12.209Z,20.97
2018-05-11T21:25:38.710Z,17.77
2018-05-11T21:28:05.294Z,19.70
2018-05-11T21:30:31.809Z,27.03
2018-05-11T21:32:58.408Z,19.50
2018-05-11T21:35:25.622Z,23.90
2018-05-11T21:37:52.182Z,18.30
2018-05-11T21:40:18.819Z,23.53
2018-05-11T21:42:46.040Z,21.42
2018-05-11T21:45:12.522Z,22.90
2018-05-11T21:47:39.274Z,28.55
2018-05-11T21:50:05.815Z,29.40
2018-05-11T21:52:32.412Z,22.92
2018-05-11T21:54:59.161Z,22.65
2018-05-11T21:57:26.585Z,23.12
2018-05-11T21:59:53.050Z,18.80
2018-05-11T22:02:20.204Z,21.77
2018-05-11T22:04:47.504Z,21.17
2018-05-11T22:07:13.976Z,20.77
2018-05-11T22:09:41.199Z,20.33
2018-05-11T22:12:07.618Z,50.53
2018-05-11T22:14:34.030Z,21.58
2018-05-11T22:17:00.551Z,24.83
2018-05-11T22:19:27.670Z,21.33
2018-05-11T22:21:54.142Z,20.90
2018-05-11T22:24:20.529Z,21.75
2018-05-11T22:26:46.920Z,20.52
2018-05-11T22:29:13.483Z,17.62
2018-05-11T22:31:39.939Z,19.60
2018-05-11T22:34:06.389Z,17.98
2018-05-11T22:36:33.527Z,21.50
2018-05-11T22:39:00.104Z,22.77
2018-05-11T22:41:26.588Z,20.65
2018-05-11T22:43:53.132Z,23.27
2018-05-11T22:46:20.362Z,22.67
2018-05-11T22:48:47.269Z,20.12
2018-05-11T22:51:13.691Z,21.08
2018-05-11T22:53:40.877Z,20.27
2018-05-11T22:56:07.407Z,18.37
2018-05-11T22:58:33.842Z,24.25
2018-05-11T23:01:00.636Z,19.37
2018-05-11T23:03:28.250Z,24.58
2018-05-11T23:05:54.715Z,26.83
2018-05-11T23:08:21.935Z,20.55
2018-05-11T23:10:48.647Z,19.58
2018-05-11T23:13:15.938Z,22.10
2018-05-11T23:15:42.464Z,21.70
2018-05-11T23:18:08.922Z,19.48
2018-05-11T23:20:35.600Z,27.13
2018-05-11T23:23:02.014Z,20.48
2018-05-11T23:25:29.197Z,23.67
2018-05-11T23:27:55.650Z,23.98
2018-05-11T23:30:22.363Z,22.13
2018-05-11T23:32:48.867Z,21.67
2018-05-11T23:35:16.000Z,21.35
2018-05-11T23:37:43.881Z,23.12
2018-05-11T23:40:11.037Z,19.45
2018-05-11T23:42:38.411Z,24.45
2018-05-11T23:45:04.819Z,20.67
2018-05-11T23:47:31.249Z,20.90
2018-05-11T23:49:57.721Z,22.10
2018-05-11T23:52:24.627Z,22.52
2018-05-11T23:54:52.095Z,23.95
2018-05-11T23:57:18.759Z,18.85
2018-05-11T23:59:45.474Z,22.20
